createdAt,value
2019-05-29T00:00:52.554Z,56.42
2019-05-29T00:01:52.490Z,56.32
2019-05-29T00:02:52.471Z,56.32
2019-05-29T00:03:52.460Z,56.12
2019-05-29T00:04:52.444Z,56.12
2019-05-29T00:05:52.430Z,55.91
2019-05-29T00:06:52.423Z,55.91
2019-05-29T00:07:52.437Z,56.21
2019-05-29T00:08:52.397Z,56.01
2019-05-29T00:09:52.396Z,56.21
2019-05-29T00:10:52.381Z,56.32
2019-05-29T00:11:52.366Z,56.42
2019-05-29T00:12:52.361Z,56.42
2019-05-29T00:13:52.358Z,56.52
2019-05-29T00:14:52.332Z,56.21
2019-05-29T00:15:52.323Z,56.62
2019-05-29T00:16:52.319Z,57.23
2019-05-29T00:17:52.306Z,56.42
2019-05-29T00:18:52.333Z,56.52
2019-05-29T00:19:52.280Z,57.13
2019-05-29T00:20:52.272Z,56.45
2019-05-29T00:21:52.261Z,56.55
2019-05-29T00:22:52.253Z,56.34
2019-05-29T00:23:52.235Z,56.62
2019-05-29T00:24:52.241Z,56.12
2019-05-29T00:25:52.213Z,56.32
2019-05-29T00:26:52.217Z,56.52
2019-05-29T00:27:52.205Z,56.62
2019-05-29T00:28:52.181Z,57.36
2019-05-29T00:29:52.185Z,57.36
2019-05-29T00:30:52.159Z,56.12
2019-05-29T00:31:52.158Z,57.54
2019-05-29T00:32:52.138Z,57.06
2019-05-29T00:33:52.132Z,57.06
2019-05-29T00:34:52.191Z,56.12
2019-05-29T00:35:52.119Z,56.75
2019-05-29T00:36:52.101Z,56.04
2019-05-29T00:37:52.084Z,56.55
2019-05-29T00:38:52.076Z,56.34
2019-05-29T00:39:52.070Z,56.14
2019-05-29T00:40:52.060Z,56.75
2019-05-29T00:41:52.041Z,57.06
2019-05-29T00:42:52.034Z,57.16
2019-05-29T00:43:52.023Z,57.56
2019-05-29T00:44:52.009Z,56.85
2019-05-29T00:45:52.010Z,56.95
2019-05-29T00:46:52.010Z,57.06
2019-05-29T00:47:51.976Z,56.88
2019-05-29T00:48:51.972Z,56.77
2019-05-29T00:49:51.958Z,57.29
2019-05-29T00:50:51.950Z,56.16
2019-05-29T00:51:51.938Z,56.34
2019-05-29T00:52:51.935Z,56.34
2019-05-29T00:53:51.914Z,56.45
2019-05-29T00:54:51.908Z,55.63
2019-05-29T00:55:51.895Z,56.45
2019-05-29T00:56:51.877Z,56.45
2019-05-29T00:57:51.866Z,56.34
2019-05-29T00:58:51.896Z,56.55
2019-05-29T00:59:51.844Z,55.63
2019-05-29T01:00:51.838Z,56.45
2019-05-29T01:01:51.828Z,56.34
2019-05-29T01:02:51.829Z,56.55
2019-05-29T01:03:51.809Z,55.83
2019-05-29T01:04:51.818Z,56.34
2019-05-29T01:05:51.782Z,56.14
2019-05-29T01:06:51.797Z,56.24
2019-05-29T01:07:51.763Z,56.34
2019-05-29T01:08:51.753Z,55.83
2019-05-29T01:09:51.744Z,55.63
2019-05-29T01:10:51.771Z,55.63
2019-05-29T01:11:51.718Z,55.83
2019-05-29T01:12:51.733Z,55.96
2019-05-29T01:13:51.697Z,55.96
2019-05-29T01:14:51.682Z,56.27
2019-05-29T01:15:51.675Z,55.46
2019-05-29T01:16:51.672Z,55.76
2019-05-29T01:17:51.661Z,55.55
2019-05-29T01:18:51.644Z,56.04
2019-05-29T01:19:51.635Z,56.24
2019-05-29T01:20:51.616Z,55.96
2019-05-29T01:21:51.607Z,56.07
2019-05-29T01:22:51.609Z,56.16
2019-05-29T01:23:51.593Z,56.47
2019-05-29T01:24:51.578Z,56.47
2019-05-29T01:25:51.566Z,56.04
2019-05-29T01:26:51.552Z,56.16
2019-05-29T01:27:51.549Z,56.37
2019-05-29T01:28:51.547Z,56.57
2019-05-29T01:29:51.523Z,56.77
2019-05-29T01:30:51.763Z,56.68
2019-05-29T01:31:51.497Z,56.47
2019-05-29T01:32:51.526Z,56.57
2019-05-29T01:33:51.475Z,56.47
2019-05-29T01:34:51.471Z,56.40
2019-05-29T01:35:51.467Z,56.40
2019-05-29T01:36:51.447Z,56.60
2019-05-29T01:37:51.433Z,56.20
2019-05-29T01:38:51.429Z,57.01
2019-05-29T01:39:51.419Z,57.31
2019-05-29T01:40:51.435Z,57.52
2019-05-29T01:41:51.393Z,56.81
2019-05-29T01:42:51.377Z,56.81
2019-05-29T01:43:51.373Z,56.70
2019-05-29T01:45:06.453Z,56.50
2019-05-29T01:45:52.352Z,56.09
2019-05-29T01:46:51.343Z,57.11
2019-05-29T01:47:51.327Z,56.60
2019-05-29T01:48:51.318Z,56.90
2019-05-29T01:49:51.315Z,56.60
2019-05-29T01:50:51.301Z,56.81
2019-05-29T01:51:51.295Z,57.42
2019-05-29T01:52:51.269Z,57.08
2019-05-29T01:53:51.257Z,56.47
2019-05-29T01:54:51.247Z,57.08
2019-05-29T01:55:51.256Z,56.70
2019-05-29T01:56:51.226Z,57.31
2019-05-29T01:57:51.220Z,57.72
2019-05-29T01:58:51.212Z,57.72
2019-05-29T01:59:51.199Z,58.23
2019-05-29T02:00:51.194Z,57.92
2019-05-29T02:01:51.171Z,58.03
2019-05-29T02:02:51.166Z,58.33
2019-05-29T02:03:51.179Z,58.33
2019-05-29T02:04:51.144Z,58.74
2019-05-29T02:05:51.168Z,58.33
2019-05-29T02:06:51.115Z,59.05
2019-05-29T02:07:51.170Z,59.38
2019-05-29T02:08:51.101Z,59.25
2019-05-29T02:09:51.097Z,59.05
2019-05-29T02:10:51.104Z,59.55
2019-05-29T02:11:51.079Z,59.07
2019-05-29T02:12:51.057Z,59.75
2019-05-29T02:13:51.041Z,59.75
2019-05-29T02:14:51.030Z,59.99
2019-05-29T02:15:51.032Z,60.37
2019-05-29T02:16:51.029Z,59.78
2019-05-29T02:17:51.005Z,60.09
2019-05-29T02:18:51.008Z,60.80
2019-05-29T02:19:50.981Z,59.99
2019-05-29T02:20:50.972Z,60.30
2019-05-29T02:21:50.965Z,60.09
2019-05-29T02:22:50.994Z,60.09
2019-05-29T02:23:50.933Z,59.99
2019-05-29T02:24:50.927Z,60.77
2019-05-29T02:25:50.915Z,60.39
2019-05-29T02:26:50.902Z,60.30
2019-05-29T02:27:50.892Z,60.30
2019-05-29T02:28:50.945Z,60.16
2019-05-29T02:29:50.871Z,60.27
2019-05-29T02:30:50.859Z,60.47
2019-05-29T02:31:50.851Z,61.08
2019-05-29T02:32:50.840Z,60.80
2019-05-29T02:33:50.865Z,61.08
2019-05-29T02:34:50.819Z,61.08
2019-05-29T02:35:50.808Z,60.91
2019-05-29T02:36:50.792Z,61.11
2019-05-29T02:37:50.788Z,61.41
2019-05-29T02:38:50.774Z,61.82
2019-05-29T02:39:50.772Z,62.43
2019-05-29T02:40:50.759Z,61.72
2019-05-29T02:41:50.744Z,62.02
2019-05-29T02:42:50.736Z,61.61
2019-05-29T02:43:50.727Z,61.72
2019-05-29T02:44:50.706Z,62.33
2019-05-29T02:45:54.816Z,61.93
2019-05-29T02:46:50.687Z,62.23
2019-05-29T02:47:50.676Z,62.33
2019-05-29T02:48:50.664Z,62.02
2019-05-29T02:49:50.656Z,62.33
2019-05-29T02:50:50.654Z,62.13
2019-05-29T02:51:50.635Z,61.93
2019-05-29T02:52:50.619Z,61.82
2019-05-29T02:53:50.637Z,61.93
2019-05-29T02:54:50.597Z,62.23
2019-05-29T02:55:50.590Z,62.33
2019-05-29T02:56:50.579Z,62.13
2019-05-29T02:57:50.583Z,62.23
2019-05-29T02:58:50.558Z,62.33
2019-05-29T02:59:50.556Z,61.72
2019-05-29T03:00:50.535Z,62.02
2019-05-29T03:01:50.528Z,62.43
2019-05-29T03:02:50.510Z,62.54
2019-05-29T03:03:50.505Z,62.63
2019-05-29T03:04:50.503Z,62.33
2019-05-29T03:05:50.485Z,62.97
2019-05-29T03:06:50.487Z,62.23
2019-05-29T03:07:50.462Z,62.46
2019-05-29T03:08:50.449Z,61.72
2019-05-29T03:09:50.442Z,62.87
2019-05-29T03:10:50.429Z,62.77
2019-05-29T03:11:50.443Z,62.77
2019-05-29T03:12:50.406Z,62.97
2019-05-29T03:13:50.412Z,63.04
2019-05-29T03:14:50.392Z,62.97
2019-05-29T03:16:08.403Z,62.56
2019-05-29T03:16:51.374Z,62.97
2019-05-29T03:17:50.356Z,63.07
2019-05-29T03:18:50.342Z,62.56
2019-05-29T03:19:50.327Z,62.74
2019-05-29T03:20:50.321Z,62.87
2019-05-29T03:21:50.330Z,62.43
2019-05-29T03:22:50.300Z,62.74
2019-05-29T03:23:50.288Z,63.18
2019-05-29T03:24:50.271Z,62.77
2019-05-29T03:25:50.262Z,62.26
2019-05-29T03:26:50.252Z,62.66
2019-05-29T03:27:50.276Z,63.04
2019-05-29T03:28:50.241Z,63.58
2019-05-29T03:29:50.230Z,63.38
2019-05-29T03:30:50.209Z,63.48
2019-05-29T03:31:50.199Z,62.94
2019-05-29T03:32:50.187Z,62.54
2019-05-29T03:33:51.117Z,62.63
2019-05-29T03:34:50.166Z,63.04
2019-05-29T03:35:50.153Z,62.54
2019-05-29T03:36:50.146Z,62.66
2019-05-29T03:37:50.131Z,62.63
2019-05-29T03:38:50.144Z,62.54
2019-05-29T03:39:50.117Z,62.56
2019-05-29T03:40:50.102Z,62.66
2019-05-29T03:41:50.090Z,62.63
2019-05-29T03:42:50.099Z,62.77
2019-05-29T03:43:50.086Z,62.94
2019-05-29T03:44:50.064Z,62.54
2019-05-29T03:45:50.051Z,62.87
2019-05-29T03:46:50.037Z,62.63
2019-05-29T03:47:50.028Z,63.07
2019-05-29T03:48:50.022Z,63.48
2019-05-29T03:49:50.012Z,63.48
2019-05-29T03:50:49.997Z,63.99
2019-05-29T03:51:49.986Z,63.99
2019-05-29T03:52:49.970Z,63.99
2019-05-29T03:53:49.965Z,64.50
2019-05-29T03:54:49.965Z,63.86
2019-05-29T03:55:49.950Z,64.09
2019-05-29T03:56:49.933Z,64.60
2019-05-29T03:57:49.918Z,64.20
2019-05-29T03:58:49.907Z,64.26
2019-05-29T03:59:49.909Z,64.17
2019-05-29T04:00:49.953Z,63.89
2019-05-29T04:01:49.887Z,63.89
2019-05-29T04:02:49.862Z,63.96
2019-05-29T04:03:49.850Z,63.45
2019-05-29T04:04:49.840Z,63.96
2019-05-29T04:05:49.833Z,64.29
2019-05-29T04:06:49.839Z,63.65
2019-05-29T04:07:49.813Z,64.06
2019-05-29T04:08:49.802Z,64.09
2019-05-29T04:09:49.791Z,64.57
2019-05-29T04:10:49.775Z,64.50
2019-05-29T04:11:49.775Z,64.81
2019-05-29T04:12:49.760Z,64.57
2019-05-29T04:13:49.745Z,64.20
2019-05-29T04:14:49.736Z,64.26
2019-05-29T04:15:49.720Z,63.68
2019-05-29T04:16:59.144Z,63.89
2019-05-29T04:17:50.702Z,64.06
2019-05-29T04:18:49.692Z,64.50
2019-05-29T04:19:49.677Z,63.99
2019-05-29T04:20:49.673Z,64.20
2019-05-29T04:21:49.696Z,64.29
2019-05-29T04:22:49.645Z,64.17
2019-05-29T04:23:49.642Z,64.29
2019-05-29T04:24:49.621Z,64.29
2019-05-29T04:25:49.616Z,64.09
2019-05-29T04:26:49.601Z,64.20
2019-05-29T04:27:49.605Z,64.40
2019-05-29T04:28:49.586Z,64.20
2019-05-29T04:29:49.575Z,64.81
2019-05-29T04:30:49.564Z,64.70
2019-05-29T04:31:49.561Z,64.60
2019-05-29T04:32:49.557Z,64.70
2019-05-29T04:33:49.534Z,64.60
2019-05-29T04:34:49.522Z,64.90
2019-05-29T04:35:49.510Z,64.70
2019-05-29T04:36:49.494Z,64.60
2019-05-29T04:37:49.481Z,64.50
2019-05-29T04:38:49.487Z,64.60
2019-05-29T04:39:49.467Z,64.57
2019-05-29T04:40:49.457Z,64.60
2019-05-29T04:41:49.450Z,64.70
2019-05-29T04:42:49.434Z,64.67
2019-05-29T04:43:49.428Z,64.20
2019-05-29T04:44:49.418Z,64.40
2019-05-29T04:45:49.396Z,63.38
2019-05-29T04:46:49.385Z,63.79
2019-05-29T04:47:49.393Z,64.09
2019-05-29T04:48:49.378Z,63.79
2019-05-29T04:49:49.362Z,63.45
2019-05-29T04:50:49.340Z,63.56
2019-05-29T04:51:49.329Z,63.48
2019-05-29T04:52:49.335Z,63.76
2019-05-29T04:53:49.321Z,63.96
2019-05-29T04:54:49.313Z,64.06
2019-05-29T04:55:49.286Z,63.35
2019-05-29T04:56:49.281Z,63.04
2019-05-29T04:57:50.942Z,62.43
2019-05-29T04:58:49.270Z,62.54
2019-05-29T04:59:49.249Z,62.63
2019-05-29T05:00:58.501Z,62.84
2019-05-29T05:01:50.227Z,62.94
2019-05-29T05:02:49.215Z,62.63
2019-05-29T05:03:49.208Z,62.63
2019-05-29T05:04:49.200Z,62.63
2019-05-29T05:05:49.179Z,62.74
2019-05-29T05:06:49.173Z,63.04
2019-05-29T05:07:49.159Z,62.71
2019-05-29T05:08:49.151Z,62.74
2019-05-29T05:09:49.152Z,62.63
2019-05-29T05:10:49.126Z,62.51
2019-05-29T05:11:49.127Z,62.54
2019-05-29T05:12:49.108Z,62.43
2019-05-29T05:13:49.099Z,62.81
2019-05-29T05:14:49.081Z,61.99
2019-05-29T05:15:49.080Z,61.99
2019-05-29T05:16:49.059Z,61.79
2019-05-29T05:17:49.049Z,62.71
2019-05-29T05:18:49.046Z,62.40
2019-05-29T05:19:49.035Z,61.90
2019-05-29T05:20:49.046Z,61.69
2019-05-29T05:21:49.011Z,61.90
2019-05-29T05:22:48.995Z,61.90
2019-05-29T05:23:48.984Z,61.97
2019-05-29T05:24:48.979Z,61.97
2019-05-29T05:25:48.967Z,61.66
2019-05-29T05:26:48.994Z,61.56
2019-05-29T05:27:48.943Z,61.76
2019-05-29T05:28:48.948Z,61.15
2019-05-29T05:29:48.927Z,60.95
2019-05-29T05:30:48.916Z,60.34
2019-05-29T05:31:48.898Z,59.63
2019-05-29T05:32:48.916Z,60.54
2019-05-29T05:33:48.876Z,59.91
2019-05-29T05:34:48.872Z,59.83
2019-05-29T05:35:48.855Z,60.34
2019-05-29T05:36:48.845Z,59.80
2019-05-29T05:37:48.836Z,59.91
2019-05-29T05:38:48.847Z,60.11
2019-05-29T05:39:48.823Z,59.77
2019-05-29T05:40:48.810Z,60.00
2019-05-29T05:41:48.790Z,59.39
2019-05-29T05:42:48.784Z,59.19
2019-05-29T05:43:48.768Z,59.16
2019-05-29T05:44:48.788Z,58.65
2019-05-29T05:45:48.752Z,58.45
2019-05-29T05:46:48.741Z,58.15
2019-05-29T05:47:56.804Z,57.95
2019-05-29T05:48:49.716Z,58.33
2019-05-29T05:49:48.710Z,58.53
2019-05-29T05:50:48.713Z,58.53
2019-05-29T05:51:48.709Z,57.41
2019-05-29T05:52:48.672Z,57.79
2019-05-29T05:53:48.699Z,56.74
2019-05-29T05:54:48.651Z,56.24
2019-05-29T05:55:48.645Z,55.43
2019-05-29T05:56:48.641Z,56.24
2019-05-29T05:57:48.619Z,55.02
2019-05-29T05:58:48.613Z,54.31
2019-05-29T05:59:48.606Z,53.70
2019-05-29T06:00:48.586Z,54.69
2019-05-29T06:01:48.576Z,53.78
2019-05-29T06:02:52.102Z,54.90
2019-05-29T06:03:48.558Z,54.86
2019-05-29T06:04:48.543Z,54.57
2019-05-29T06:05:48.562Z,54.74
2019-05-29T06:06:48.521Z,54.16
2019-05-29T06:07:48.510Z,52.13
2019-05-29T06:08:48.519Z,52.00
2019-05-29T06:09:48.489Z,52.73
2019-05-29T06:10:51.218Z,52.20
2019-05-29T06:11:48.475Z,52.03
2019-05-29T06:12:48.457Z,52.33
2019-05-29T06:13:48.449Z,50.91
2019-05-29T06:14:48.451Z,51.01
2019-05-29T06:15:48.431Z,51.93
2019-05-29T06:16:48.427Z,52.33
2019-05-29T06:18:10.140Z,51.01
2019-05-29T06:18:49.392Z,51.21
2019-05-29T06:19:48.401Z,51.82
2019-05-29T06:20:48.377Z,51.62
2019-05-29T06:21:48.370Z,50.79
2019-05-29T06:22:48.350Z,51.60
2019-05-29T06:23:48.340Z,51.29
2019-05-29T06:24:48.374Z,50.99
2019-05-29T06:25:48.325Z,50.48
2019-05-29T06:26:48.349Z,50.68
2019-05-29T06:27:48.305Z,50.59
2019-05-29T06:28:48.287Z,49.57
2019-05-29T06:29:48.289Z,50.18
2019-05-29T06:30:48.275Z,51.29
2019-05-29T06:31:48.263Z,50.68
2019-05-29T06:32:48.271Z,50.59
2019-05-29T06:33:48.238Z,50.79
2019-05-29T06:34:48.226Z,50.40
2019-05-29T06:35:48.216Z,50.10
2019-05-29T06:36:48.412Z,51.21
2019-05-29T06:37:48.210Z,51.50
2019-05-29T06:38:48.188Z,52.11
2019-05-29T06:39:48.173Z,53.02
2019-05-29T06:40:48.164Z,54.03
2019-05-29T06:41:48.151Z,53.12
2019-05-29T06:42:48.144Z,52.51
2019-05-29T06:43:48.139Z,52.51
2019-05-29T06:44:49.789Z,52.20
2019-05-29T06:45:48.104Z,51.80
2019-05-29T06:46:48.097Z,52.81
2019-05-29T06:47:48.089Z,53.30
2019-05-29T06:48:58.904Z,52.08
2019-05-29T06:49:49.107Z,51.78
2019-05-29T06:50:48.054Z,52.89
2019-05-29T06:51:48.038Z,52.46
2019-05-29T06:52:48.033Z,52.66
2019-05-29T06:53:48.407Z,52.15
2019-05-29T06:54:48.270Z,52.86
2019-05-29T06:55:54.243Z,52.64
2019-05-29T06:56:48.983Z,53.45
2019-05-29T06:57:48.330Z,53.45
2019-05-29T06:58:48.480Z,52.51
2019-05-29T06:59:48.916Z,52.08
2019-05-29T07:00:47.950Z,52.08
2019-05-29T07:01:47.939Z,50.77
2019-05-29T07:02:47.937Z,50.77
2019-05-29T07:03:48.239Z,51.86
2019-05-29T07:04:47.910Z,51.98
2019-05-29T07:05:51.364Z,52.36
2019-05-29T07:06:47.885Z,50.82
2019-05-29T07:07:47.927Z,51.12
2019-05-29T07:08:49.942Z,49.69
2019-05-29T07:09:47.844Z,48.78
2019-05-29T07:10:48.510Z,49.38
2019-05-29T07:11:47.825Z,49.48
2019-05-29T07:12:47.812Z,49.36
2019-05-29T07:13:50.317Z,49.36
2019-05-29T07:14:47.797Z,48.55
2019-05-29T07:15:47.797Z,47.82
2019-05-29T07:16:55.779Z,47.32
2019-05-29T07:17:48.757Z,48.22
2019-05-29T07:19:23.315Z,47.95
2019-05-29T07:20:00.129Z,49.18
2019-05-29T07:20:48.741Z,46.86
2019-05-29T07:21:47.720Z,46.76
2019-05-29T07:22:47.712Z,47.47
2019-05-29T07:23:48.755Z,48.68
2019-05-29T07:24:47.711Z,48.27
2019-05-29T07:25:47.678Z,46.96
2019-05-29T07:26:47.663Z,48.07
2019-05-29T07:27:47.665Z,47.85
2019-05-29T07:29:06.852Z,48.35
2019-05-29T07:29:48.639Z,47.34
2019-05-29T07:30:57.829Z,47.12
2019-05-29T07:31:48.620Z,46.53
2019-05-29T07:32:56.420Z,46.94
2019-05-29T07:33:48.585Z,46.86
2019-05-29T07:35:02.043Z,47.06
2019-05-29T07:35:48.574Z,46.33
2019-05-29T07:36:48.191Z,45.32
2019-05-29T07:37:48.103Z,45.61
2019-05-29T07:39:00.992Z,46.69
2019-05-29T07:39:48.526Z,45.48
2019-05-29T07:40:49.687Z,45.78
2019-05-29T07:41:47.760Z,45.46
2019-05-29T07:42:53.322Z,44.35
2019-05-29T07:43:48.479Z,44.13
2019-05-29T07:44:48.189Z,43.73
2019-05-29T07:45:48.241Z,44.02
2019-05-29T07:46:48.738Z,43.54
2019-05-29T07:47:48.578Z,44.02
2019-05-29T07:48:48.524Z,42.80
2019-05-29T07:49:49.048Z,44.23
2019-05-29T07:50:48.437Z,44.73
2019-05-29T07:51:48.691Z,43.95
2019-05-29T07:52:48.890Z,44.05
2019-05-29T07:53:48.623Z,43.95
2019-05-29T07:54:48.020Z,43.52
2019-05-29T07:55:47.355Z,42.70
2019-05-29T07:56:47.338Z,44.09
2019-05-29T07:57:47.338Z,43.66
2019-05-29T07:58:56.564Z,41.83
2019-05-29T07:59:48.851Z,42.03
2019-05-29T08:01:08.164Z,41.83
2019-05-29T08:01:49.285Z,43.24
2019-05-29T08:02:47.566Z,43.12
2019-05-29T08:03:47.517Z,41.71
2019-05-29T08:04:47.307Z,41.33
2019-05-29T08:05:51.019Z,41.43
2019-05-29T08:06:54.219Z,41.53
2019-05-29T08:07:49.577Z,40.84
2019-05-29T08:08:47.526Z,40.75
2019-05-29T08:09:47.829Z,40.55
2019-05-29T08:10:47.613Z,41.65
2019-05-29T08:11:47.697Z,41.47
2019-05-29T08:12:53.192Z,40.66
2019-05-29T08:13:48.161Z,40.97
2019-05-29T08:14:47.890Z,40.38
2019-05-29T08:15:59.722Z,40.66
2019-05-29T08:16:48.204Z,40.36
2019-05-29T08:17:48.194Z,40.14
2019-05-29T08:18:50.528Z,40.73
2019-05-29T08:20:05.369Z,41.01
2019-05-29T08:20:48.236Z,38.68
2019-05-29T08:21:48.413Z,38.79
2019-05-29T08:22:48.426Z,38.71
2019-05-29T08:23:47.065Z,39.94
2019-05-29T08:24:48.083Z,39.94
2019-05-29T08:25:47.617Z,40.66
2019-05-29T08:26:47.040Z,40.66
2019-05-29T08:27:47.008Z,40.69
2019-05-29T08:28:46.996Z,41.29
2019-05-29T08:29:47.185Z,40.34
2019-05-29T08:30:51.717Z,39.90
2019-05-29T08:31:48.954Z,39.88
2019-05-29T08:32:47.091Z,39.64
2019-05-29T08:33:46.951Z,38.82
2019-05-29T08:34:47.134Z,38.31
2019-05-29T08:35:47.546Z,38.09
2019-05-29T08:36:59.943Z,38.40
2019-05-29T08:37:49.018Z,37.92
2019-05-29T08:38:47.378Z,37.32
2019-05-29T08:39:47.497Z,36.70
2019-05-29T08:40:47.419Z,36.07
2019-05-29T08:42:06.117Z,35.75
2019-05-29T08:42:47.855Z,37.68
2019-05-29T08:43:46.984Z,38.40
2019-05-29T08:44:47.491Z,36.10
2019-05-29T08:45:47.951Z,35.35
2019-05-29T08:47:06.385Z,35.14
2019-05-29T08:47:47.863Z,35.58
2019-05-29T08:48:48.056Z,35.18
2019-05-29T08:49:50.613Z,34.84
2019-05-29T08:50:47.811Z,35.43
2019-05-29T08:51:47.984Z,34.99
2019-05-29T08:52:47.975Z,33.86
2019-05-29T08:53:48.635Z,33.84
2019-05-29T08:54:46.726Z,32.12
2019-05-29T08:55:46.709Z,32.80
2019-05-29T08:56:46.699Z,32.65
2019-05-29T08:57:46.697Z,31.93
2019-05-29T08:58:46.683Z,30.01
2019-05-29T08:59:46.676Z,30.12
2019-05-29T09:00:50.570Z,31.60
2019-05-29T09:01:49.780Z,31.51
2019-05-29T09:02:46.754Z,30.10
2019-05-29T09:03:46.787Z,30.68
2019-05-29T09:04:48.265Z,30.07
2019-05-29T09:05:46.766Z,29.18
2019-05-29T09:06:47.072Z,29.98
2019-05-29T09:07:48.317Z,28.57
2019-05-29T09:08:48.091Z,28.17
2019-05-29T09:09:46.982Z,28.76
2019-05-29T09:10:47.201Z,29.90
2019-05-29T09:11:47.561Z,32.14
2019-05-29T09:12:55.494Z,31.18
2019-05-29T09:13:47.529Z,31.91
2019-05-29T09:14:46.517Z,34.24
2019-05-29T09:15:46.514Z,34.06
2019-05-29T09:16:46.518Z,34.36
2019-05-29T09:17:46.502Z,34.34
2019-05-29T09:18:46.478Z,33.61
2019-05-29T09:19:46.460Z,31.87
2019-05-29T09:21:02.159Z,30.14
2019-05-29T09:21:47.463Z,29.33
2019-05-29T09:22:46.432Z,28.81
2019-05-29T09:23:46.422Z,29.60
2019-05-29T09:24:46.406Z,28.97
2019-05-29T09:25:46.400Z,28.55
2019-05-29T09:26:46.689Z,28.53
2019-05-29T09:27:46.390Z,29.33
2019-05-29T09:28:46.373Z,28.73
2019-05-29T09:29:46.353Z,28.57
2019-05-29T09:30:46.343Z,28.49
2019-05-29T09:31:46.341Z,28.46
2019-05-29T09:32:51.498Z,29.20
2019-05-29T09:33:47.345Z,29.13
2019-05-29T09:34:47.723Z,29.34
2019-05-29T09:35:46.292Z,30.14
2019-05-29T09:36:46.281Z,30.24
2019-05-29T09:37:46.271Z,29.69
2019-05-29T09:38:46.281Z,28.88
2019-05-29T09:39:46.274Z,28.86
2019-05-29T09:40:46.245Z,27.95
2019-05-29T09:41:46.236Z,27.54
2019-05-29T09:42:46.228Z,27.71
2019-05-29T09:43:58.155Z,27.41
2019-05-29T09:44:47.210Z,27.19
2019-05-29T09:45:46.189Z,27.80
2019-05-29T09:46:46.191Z,27.39
2019-05-29T09:47:46.176Z,25.39
2019-05-29T09:48:49.679Z,24.19
2019-05-29T09:49:46.148Z,24.77
2019-05-29T09:50:50.467Z,25.68
2019-05-29T09:51:46.133Z,25.98
2019-05-29T09:52:46.118Z,25.77
2019-05-29T09:53:46.341Z,27.40
2019-05-29T09:54:46.113Z,26.90
2019-05-29T09:55:46.095Z,26.69
2019-05-29T09:56:46.096Z,28.42
2019-05-29T09:57:46.070Z,28.70
2019-05-29T09:58:46.069Z,26.53
2019-05-29T09:59:46.100Z,26.73
2019-05-29T10:00:46.044Z,27.41
2019-05-29T10:01:46.032Z,26.40
2019-05-29T10:02:46.013Z,25.98
2019-05-29T10:03:46.009Z,25.79
2019-05-29T10:04:45.995Z,26.68
2019-05-29T10:05:45.998Z,25.87
2019-05-29T10:06:45.979Z,25.76
2019-05-29T10:07:45.966Z,26.27
2019-05-29T10:08:45.959Z,26.90
2019-05-29T10:09:45.944Z,25.90
2019-05-29T10:10:46.121Z,25.86
2019-05-29T10:11:45.938Z,27.48
2019-05-29T10:12:45.917Z,26.62
2019-05-29T10:13:45.909Z,25.42
2019-05-29T10:14:45.925Z,26.81
2019-05-29T10:15:45.902Z,27.78
2019-05-29T10:16:45.880Z,26.28
2019-05-29T10:17:45.870Z,25.18
2019-05-29T10:18:45.854Z,23.96
2019-05-29T10:19:45.850Z,24.16
2019-05-29T10:20:45.838Z,24.25
2019-05-29T10:21:45.835Z,22.94
2019-05-29T10:22:45.827Z,22.24
2019-05-29T10:23:45.803Z,23.52
2019-05-29T10:24:45.794Z,23.63
2019-05-29T10:25:45.792Z,24.11
2019-05-29T10:26:45.782Z,23.92
2019-05-29T10:27:45.763Z,24.30
2019-05-29T10:29:02.066Z,22.71
2019-05-29T10:29:50.261Z,23.40
2019-05-29T10:30:48.166Z,23.29
2019-05-29T10:31:47.717Z,22.99
2019-05-29T10:32:46.300Z,22.48
2019-05-29T10:33:46.139Z,23.00
2019-05-29T10:34:46.317Z,23.08
2019-05-29T10:35:49.002Z,22.88
2019-05-29T10:36:48.273Z,22.38
2019-05-29T10:37:46.633Z,23.47
2019-05-29T10:38:46.505Z,23.27
2019-05-29T10:39:46.777Z,23.47
2019-05-29T10:40:55.133Z,21.39
2019-05-29T10:41:46.774Z,21.87
2019-05-29T10:42:46.901Z,22.48
2019-05-29T10:43:47.017Z,21.50
2019-05-29T10:44:45.600Z,21.39
2019-05-29T10:45:45.859Z,22.09
2019-05-29T10:46:47.975Z,20.89
2019-05-29T10:47:45.570Z,20.39
2019-05-29T10:48:49.313Z,20.40
2019-05-29T10:49:47.638Z,20.72
2019-05-29T10:50:49.381Z,20.22
2019-05-29T10:52:00.271Z,20.81
2019-05-29T10:52:46.513Z,22.89
2019-05-29T10:53:47.017Z,22.60
2019-05-29T10:54:46.110Z,22.22
2019-05-29T10:55:46.360Z,22.51
2019-05-29T10:56:46.823Z,22.59
2019-05-29T10:57:46.632Z,21.91
2019-05-29T10:58:49.680Z,24.11
2019-05-29T10:59:46.668Z,22.25
2019-05-29T11:00:46.783Z,22.81
2019-05-29T11:01:45.428Z,23.19
2019-05-29T11:02:46.104Z,24.01
2019-05-29T11:03:45.565Z,22.55
2019-05-29T11:04:50.399Z,22.63
2019-05-29T11:05:47.473Z,22.77
2019-05-29T11:06:46.154Z,22.95
2019-05-29T11:07:45.740Z,23.71
2019-05-29T11:08:45.880Z,24.84
2019-05-29T11:09:46.753Z,24.57
2019-05-29T11:10:45.987Z,26.08
2019-05-29T11:11:46.227Z,25.70
2019-05-29T11:12:46.406Z,25.82
2019-05-29T11:13:46.624Z,24.71
2019-05-29T11:14:46.480Z,23.78
2019-05-29T11:15:46.469Z,24.25
2019-05-29T11:16:45.286Z,23.74
2019-05-29T11:17:45.300Z,23.33
2019-05-29T11:18:45.263Z,23.33
2019-05-29T11:19:45.245Z,23.32
2019-05-29T11:20:45.236Z,22.72
2019-05-29T11:21:45.225Z,23.22
2019-05-29T11:22:45.221Z,22.51
2019-05-29T11:23:45.212Z,21.22
2019-05-29T11:24:45.199Z,21.81
2019-05-29T11:25:45.210Z,21.71
2019-05-29T11:26:45.189Z,22.92
2019-05-29T11:27:45.174Z,22.24
2019-05-29T11:28:45.164Z,22.52
2019-05-29T11:29:45.179Z,21.33
2019-05-29T11:30:45.142Z,22.20
2019-05-29T11:31:45.159Z,22.89
2019-05-29T11:32:47.453Z,21.79
2019-05-29T11:33:45.152Z,20.99
2019-05-29T11:34:45.101Z,20.99
2019-05-29T11:35:58.382Z,20.19
2019-05-29T11:36:46.114Z,21.08
2019-05-29T11:37:45.350Z,20.87
2019-05-29T11:38:45.286Z,20.67
2019-05-29T11:39:45.257Z,20.67
2019-05-29T11:40:45.455Z,20.86
2019-05-29T11:41:45.031Z,19.98
2019-05-29T11:42:45.038Z,20.86
2019-05-29T11:43:45.007Z,20.37
2019-05-29T11:44:45.010Z,19.08
2019-05-29T11:45:44.991Z,20.35
2019-05-29T11:46:44.977Z,20.75
2019-05-29T11:47:44.982Z,20.96
2019-05-29T11:48:44.972Z,21.17
2019-05-29T11:49:44.957Z,20.90
2019-05-29T11:50:44.945Z,20.92
2019-05-29T11:51:44.936Z,21.29
2019-05-29T11:52:44.931Z,21.36
2019-05-29T11:53:45.405Z,21.26
2019-05-29T11:54:45.308Z,20.95
2019-05-29T11:55:45.436Z,20.36
2019-05-29T11:56:45.099Z,20.19
2019-05-29T11:57:44.872Z,21.70
2019-05-29T11:58:44.866Z,22.20
2019-05-29T11:59:44.865Z,23.22
2019-05-29T12:00:44.872Z,23.05
2019-05-29T12:01:50.297Z,22.96
2019-05-29T12:02:45.830Z,23.46
2019-05-29T12:04:08.600Z,22.55
2019-05-29T12:04:45.844Z,21.74
2019-05-29T12:05:44.794Z,22.24
2019-05-29T12:06:44.807Z,23.96
2019-05-29T12:07:44.801Z,24.48
2019-05-29T12:08:44.759Z,24.08
2019-05-29T12:09:44.755Z,24.20
2019-05-29T12:10:44.744Z,24.77
2019-05-29T12:11:44.729Z,23.44
2019-05-29T12:12:44.725Z,22.92
2019-05-29T12:13:44.717Z,22.91
2019-05-29T12:14:59.020Z,23.10
2019-05-29T12:15:45.691Z,21.39
2019-05-29T12:16:44.681Z,20.30
2019-05-29T12:17:44.677Z,19.60
2019-05-29T12:18:44.663Z,20.00
2019-05-29T12:19:44.655Z,19.38
2019-05-29T12:20:44.643Z,19.40
2019-05-29T12:21:44.634Z,19.89
2019-05-29T12:23:11.424Z,20.18
2019-05-29T12:23:45.611Z,20.28
2019-05-29T12:24:44.599Z,18.30
2019-05-29T12:25:44.595Z,19.89
2019-05-29T12:26:44.580Z,19.50
2019-05-29T12:27:44.618Z,20.89
2019-05-29T12:28:44.573Z,21.28
2019-05-29T12:29:44.554Z,20.87
2019-05-29T12:30:44.540Z,19.58
2019-05-29T12:31:52.837Z,18.79
2019-05-29T12:32:44.530Z,20.28
2019-05-29T12:33:44.525Z,19.52
2019-05-29T12:34:53.120Z,19.62
2019-05-29T12:35:45.513Z,20.42
2019-05-29T12:36:44.484Z,20.31
2019-05-29T12:37:44.529Z,20.68
2019-05-29T12:38:44.469Z,21.26
2019-05-29T12:39:44.454Z,20.38
2019-05-29T12:40:44.445Z,20.57
2019-05-29T12:41:44.440Z,20.76
2019-05-29T12:42:45.139Z,20.65
2019-05-29T12:43:44.420Z,20.25
2019-05-29T12:44:44.416Z,18.79
2019-05-29T12:45:44.394Z,18.19
2019-05-29T12:46:44.391Z,19.27
2019-05-29T12:47:44.381Z,18.38
2019-05-29T12:48:44.364Z,18.29
2019-05-29T12:49:44.371Z,17.00
2019-05-29T12:50:44.344Z,17.59
2019-05-29T12:51:44.406Z,18.48
2019-05-29T12:52:44.326Z,19.15